TimeAKDT,TemperatureF,Dew PointF,Humidity,Sea Level PressureIn,VisibilityMPH,Wind Direction,Wind SpeedMPH,Gust SpeedMPH,PrecipitationIn,Events,Conditions,WindDirDegrees,DateUTC
12:16 AM,48.2,44.6,87,29.64,10.0,North,3.5,-,0.01,,Overcast,10,2013-05-13 08:16:00
12:36 AM,46.4,44.6,93,29.64,10.0,Calm,Calm,-,0.01,,Overcast,0,2013-05-13 08:36:00
12:56 AM,48.2,44.6,87,29.64,10.0,East,4.6,-,0.01,,Overcast,80,2013-05-13 08:56:00
1:16 AM,48.2,44.6,87,29.64,10.0,North,5.8,-,0.01,,Overcast,360,2013-05-13 09:16:00
1:36 AM,46.4,42.8,87,29.64,10.0,North,8.1,-,0.01,,Overcast,360,2013-05-13 09:36:00
1:56 AM,46.4,42.8,87,29.64,10.0,NNE,5.8,-,0.01,,Overcast,20,2013-05-13 09:56:00
2:16 AM,46.4,42.8,87,29.64,10.0,Calm,Calm,-,N/A,,Overcast,0,2013-05-13 10:16:00
2:36 AM,48.2,44.6,87,29.64,10.0,NNE,3.5,-,0.01,,Overcast,30,2013-05-13 10:36:00
2:56 AM,48.2,44.6,87,29.64,10.0,NNE,5.8,-,0.01,,Overcast,30,2013-05-13 10:56:00
3:16 AM,48.2,44.6,87,29.64,10.0,Calm,Calm,-,N/A,,Overcast,0,2013-05-13 11:16:00
3:36 AM,48.2,44.6,87,29.64,10.0,Calm,Calm,-,0.02,,Overcast,0,2013-05-13 11:36:00
3:56 AM,48.2,44.6,87,29.64,10.0,Calm,Calm,-,0.02,,Overcast,0,2013-05-13 11:56:00
4:16 AM,48.2,42.8,82,29.64,10.0,NNW,4.6,-,0.01,,Overcast,330,2013-05-13 12:16:00
4:36 AM,48.2,42.8,82,29.65,10.0,WSW,5.8,-,0.04,,Overcast,240,2013-05-13 12:36:00
4:56 AM,46.4,44.6,93,29.65,9.0,NE,5.8,-,0.09,,Overcast,50,2013-05-13 12:56:00
5:16 AM,46.4,42.8,87,29.65,10.0,North,4.6,-,0.03,,Overcast,10,2013-05-13 13:16:00
5:36 AM,46.4,44.6,93,29.66,3.0,Calm,Calm,-,0.05,,Overcast,0,2013-05-13 13:36:00
5:56 AM,46.4,44.6,93,29.67,4.0,Calm,Calm,-,0.08,,Overcast,0,2013-05-13 13:56:00
6:16 AM,46.4,44.6,93,29.67,4.0,Calm,Calm,-,0.02,,Overcast,0,2013-05-13 14:16:00
6:36 AM,46.4,44.6,93,29.69,4.0,West,6.9,-,0.07,,Overcast,260,2013-05-13 14:36:00
6:56 AM,48.2,42.8,82,29.69,7.0,South,10.4,17.3,0.08,,Overcast,180,2013-05-13 14:56:00
7:16 AM,48.2,41.0,76,29.70,7.0,SSW,16.1,24.2,N/A,,Overcast,200,2013-05-13 15:16:00
7:36 AM,48.2,41.0,76,29.71,7.0,SSW,16.1,26.5,N/A,,Overcast,210,2013-05-13 15:36:00
7:56 AM,48.2,39.2,71,29.72,10.0,SSW,15.0,21.9,N/A,,Mostly Cloudy,200,2013-05-13 15:56:00
8:16 AM,48.2,41.0,76,29.72,10.0,SSW,12.7,17.3,N/A,,Mostly Cloudy,210,2013-05-13 16:16:00
8:36 AM,48.2,41.0,76,29.73,10.0,SW,10.4,17.3,N/A,,Mostly Cloudy,230,2013-05-13 16:36:00
8:56 AM,48.2,42.8,82,29.73,10.0,East,3.5,-,N/A,,Overcast,90,2013-05-13 16:56:00
9:16 AM,48.2,42.8,82,29.73,10.0,North,6.9,-,N/A,,Overcast,10,2013-05-13 17:16:00
9:36 AM,48.2,42.8,82,29.73,10.0,NW,5.8,-,N/A,,Overcast,320,2013-05-13 17:36:00
9:56 AM,48.2,44.6,87,29.73,10.0,NW,4.6,-,N/A,,Overcast,320,2013-05-13 17:56:00
10:16 AM,48.2,44.6,87,29.72,10.0,Calm,Calm,-,N/A,,Overcast,0,2013-05-13 18:16:00
10:36 AM,48.2,44.6,87,29.72,10.0,East,4.6,-,N/A,,Overcast,80,2013-05-13 18:36:00
10:56 AM,50.0,44.6,82,29.72,7.0,SE,4.6,-,0.01,,Overcast,130,2013-05-13 18:56:00
11:16 AM,50.0,44.6,82,29.72,7.0,Calm,Calm,-,0.02,,Overcast,0,2013-05-13 19:16:00
11:36 AM,48.2,44.6,87,29.72,7.0,Calm,Calm,-,0.05,,Overcast,0,2013-05-13 19:36:00
12:36 PM,50.0,44.6,82,29.73,10.0,ESE,6.9,-,N/A,,Overcast,120,2013-05-13 20:36:00
12:56 PM,50.0,44.6,82,29.72,10.0,East,5.8,-,N/A,,Overcast,100,2013-05-13 20:56:00
1:16 PM,50.0,44.6,82,29.72,10.0,South,5.8,-,0.01,,Overcast,180,2013-05-13 21:16:00
1:36 PM,48.2,44.6,87,29.73,10.0,Calm,Calm,-,0.04,,Overcast,0,2013-05-13 21:36:00
1:56 PM,48.2,44.6,87,29.72,10.0,Calm,Calm,-,0.08,,Overcast,0,2013-05-13 21:56:00
2:16 PM,48.2,44.6,87,29.71,10.0,Calm,Calm,-,0.01,,Overcast,0,2013-05-13 22:16:00
2:36 PM,50.0,44.6,82,29.71,10.0,ESE,4.6,-,0.01,,Overcast,110,2013-05-13 22:36:00
2:56 PM,50.0,44.6,82,29.71,10.0,West,4.6,-,0.01,,Overcast,260,2013-05-13 22:56:00
3:36 PM,50.0,44.6,82,29.70,10.0,East,12.7,18.4,0.02,,Overcast,100,2013-05-13 23:36:00
4:16 PM,50.0,44.6,82,29.70,10.0,SE,4.6,-,0.02,,Overcast,140,2013-05-14 00:16:00
4:36 PM,50.0,44.6,82,29.70,10.0,Calm,Calm,-,0.03,,Overcast,0,2013-05-14 00:36:00
4:56 PM,50.0,44.6,82,29.70,10.0,Calm,Calm,-,0.04,,Overcast,0,2013-05-14 00:56:00
5:16 PM,50.0,42.8,76,29.70,10.0,NE,3.5,-,0.02,,Overcast,40,2013-05-14 01:16:00
5:36 PM,50.0,44.6,82,29.70,10.0,East,3.5,-,0.03,,Overcast,90,2013-05-14 01:36:00
5:56 PM,50.0,44.6,82,29.70,10.0,East,3.5,-,0.04,,Overcast,80,2013-05-14 01:56:00
6:16 PM,48.2,44.6,87,29.70,10.0,Calm,Calm,-,0.01,,Overcast,0,2013-05-14 02:16:00
6:36 PM,48.2,42.8,82,29.70,10.0,ESE,3.5,-,0.01,,Overcast,120,2013-05-14 02:36:00
6:56 PM,48.2,42.8,82,29.70,10.0,Calm,Calm,-,0.02,,Overcast,0,2013-05-14 02:56:00
7:16 PM,48.2,44.6,87,29.70,10.0,SE,3.5,-,0.03,,Overcast,130,2013-05-14 03:16:00
7:36 PM,48.2,44.6,87,29.70,10.0,Calm,Calm,-,0.05,,Overcast,0,2013-05-14 03:36:00
7:56 PM,48.2,44.6,87,29.71,7.0,Calm,Calm,-,0.08,,Overcast,0,2013-05-14 03:56:00
8:16 PM,46.4,44.6,93,29.71,7.0,Calm,Calm,-,0.01,,Overcast,0,2013-05-14 04:16:00
8:36 PM,46.4,44.6,93,29.72,7.0,SSE,8.1,-,0.04,,Overcast,150,2013-05-14 04:36:00
8:56 PM,46.4,44.6,93,29.73,7.0,ESE,3.5,-,0.04,,Overcast,120,2013-05-14 04:56:00
9:16 PM,48.2,42.8,82,29.73,7.0,SE,5.8,-,N/A,,Overcast,130,2013-05-14 05:16:00
9:36 PM,48.2,42.8,82,29.74,7.0,SE,3.5,-,N/A,,Overcast,130,2013-05-14 05:36:00
9:56 PM,48.2,42.8,82,29.74,7.0,SSW,3.5,-,0.01,,Overcast,210,2013-05-14 05:56:00
10:16 PM,48.2,41.0,76,29.74,10.0,South,10.4,-,N/A,,Overcast,190,2013-05-14 06:16:00
10:36 PM,48.2,42.8,82,29.75,10.0,SSE,5.8,-,N/A,,Overcast,150,2013-05-14 06:36:00
10:56 PM,48.2,39.2,71,29.75,10.0,South,10.4,17.3,N/A,,Mostly Cloudy,190,2013-05-14 06:56:00
11:16 PM,48.2,41.0,76,29.76,10.0,SSW,9.2,-,N/A,,Overcast,200,2013-05-14 07:16:00
11:36 PM,48.2,41.0,76,29.77,10.0,South,11.5,-,N/A,,Overcast,190,2013-05-14 07:36:00
11:56 PM,48.2,42.8,82,29.77,10.0,South,6.9,-,N/A,,Overcast,180,2013-05-14 07:56:00